Time;durP1;ratioP1;P1;durP2;ratioP2;P2;SDS_P1;SDS_P2;PMS_P1;PMS_P2;Temp;Humidity;BMP_temperature;BMP_pressure;BME280_temperature;BME280_humidity;BME280_pressure;Samples;Min_cycle;Max_cycle;Signal;HPM_P1;HPM_P2
2021/04/13 00:05:02;;;;;;;33.57;19.13;;;;;;;4.37;85.46;101512.89;3469792;83;27261;-87
2021/04/13 00:10:17;;;;;;;33.40;18.67;;;;;;;4.38;85.41;101504.99;3461539;82;98446;-87
2021/04/13 00:15:29;;;;;;;31.73;18.77;;;;;;;4.37;85.23;101499.27;3472602;82;27609;-87
2021/04/13 00:20:56;;;;;;;33.07;19.57;;;;;;;4.42;85.47;101503.23;3469717;83;28416;-86
2021/04/13 00:26:00;;;;;;;31.67;18.13;;;;;;;4.38;85.38;101505.53;3463648;83;98704;-86
2021/04/13 00:31:06;;;;;;;32.07;17.73;;;;;;;4.37;85.46;101513.47;3473410;83;27659;-86
2021/04/13 00:36:11;;;;;;;31.00;18.43;;;;;;;4.31;85.58;101503.23;3459534;83;98643;-86
2021/04/13 00:41:20;;;;;;;29.63;17.97;;;;;;;4.31;85.65;101510.05;3452983;83;28409;-86
2021/04/13 00:46:27;;;;;;;27.57;15.20;;;;;;;4.32;85.91;101506.78;3469017;83;98612;-86
2021/04/13 00:51:36;;;;;;;27.67;15.80;;;;;;;4.32;85.90;101504.05;3470740;83;27717;-86
2021/04/13 00:56:39;;;;;;;28.63;16.67;;;;;;;4.32;85.98;101501.33;3462623;83;98818;-86
2021/04/13 01:02:00;;;;;;;25.97;14.90;;;;;;;4.33;85.94;101502.39;3469447;83;27463;-85
2021/04/13 01:07:17;;;;;;;24.47;13.80;;;;;;;4.31;86.00;101494.27;3464635;83;98872;-86
2021/04/13 01:12:24;;;;;;;;;;;;;;;4.35;85.98;101499.33;3474914;83;27486;-86
2021/04/13 01:17:27;;;;;;;23.15;14.35;;;;;;;4.53;86.63;101497.00;3466488;82;84905;-85
2021/04/13 01:22:56;;;;;;;24.83;13.27;;;;;;;4.62;85.88;101501.92;3473873;83;27622;-87
2021/04/13 01:27:56;;;;;;;23.27;12.50;;;;;;;4.70;85.67;101503.92;3447540;83;98853;-87
2021/04/13 01:33:24;;;;;;;22.77;13.73;;;;;;;4.73;85.55;101504.64;3469042;83;28148;-87
2021/04/13 01:38:38;;;;;;;24.93;13.30;;;;;;;4.66;85.36;101501.56;3464470;83;98783;-87
2021/04/13 01:43:38;;;;;;;23.73;13.23;;;;;;;4.61;85.22;101498.95;3486661;83;26637;-86
2021/04/13 01:48:41;;;;;;;23.33;12.60;;;;;;;4.57;85.40;101494.69;3465355;83;98625;-86
2021/04/13 01:53:46;;;;;;;17.87;10.50;;;;;;;4.49;85.26;101501.45;3477601;83;27446;-86
2021/04/13 01:59:01;;;;;;;22.65;11.85;;;;;;;4.39;85.17;101505.78;3469603;83;98462;-85
2021/04/13 02:04:18;;;;;;;23.30;12.23;;;;;;;4.29;85.36;101497.84;3470735;83;27513;-86
2021/04/13 02:09:41;;;;;;;22.10;11.35;;;;;;;4.13;85.40;101511.58;3469902;83;98434;-86
2021/04/13 02:14:46;;;;;;;21.03;11.57;;;;;;;4.11;85.64;101507.00;3473923;83;26081;-87
2021/04/13 02:19:50;;;;;;;19.45;10.82;;;;;;;4.09;85.87;101504.58;3464934;82;98485;-86
2021/04/13 02:24:54;;;;;;;18.90;10.23;;;;;;;4.16;85.96;101504.95;3466066;83;28306;-87
2021/04/13 02:30:09;;;;;;;16.93;9.10;;;;;;;4.33;85.71;101505.66;3480789;83;98131;-85
2021/04/13 02:41:06;;;;;;;17.80;9.87;;;;;;;4.52;85.32;101496.17;3865449;73;34870;-87
2021/04/13 02:46:10;;;;;;;15.97;8.50;;;;;;;4.36;85.16;101510.50;3779300;76;98560;-87
2021/04/13 02:51:15;;;;;;;15.73;8.27;;;;;;;4.33;85.06;101502.39;3790904;76;26269;-86
2021/04/13 02:56:27;;;;;;;15.05;8.18;;;;;;;4.25;84.96;101514.02;3723524;76;98562;-86
2021/04/13 03:01:28;;;;;;;18.07;9.77;;;;;;;4.20;85.00;101508.67;3643766;79;25904;-86
2021/04/13 03:06:29;;;;;;;19.80;9.13;;;;;;;4.08;84.98;101508.97;3663028;78;98412;-86
2021/04/13 03:11:30;;;;;;;13.67;7.73;;;;;;;3.97;85.16;101508.41;3658568;78;35035;-86
2021/04/13 03:16:39;;;;;;;15.33;8.40;;;;;;;3.93;85.28;101504.67;3657821;79;100238;-86
2021/04/13 03:21:45;;;;;;;15.07;7.57;;;;;;;3.95;85.50;101508.46;3660373;79;26096;-87
2021/04/13 03:27:03;;;;;;;15.08;8.00;;;;;;;3.96;85.46;101504.62;3661406;78;98577;-85
2021/04/13 03:32:05;;;;;;;16.50;8.17;;;;;;;4.01;85.53;101505.33;3688811;79;26271;-85
2021/04/13 03:37:07;;;;;;;14.15;7.30;;;;;;;4.07;85.53;101504.64;3682349;77;98645;-86
2021/04/13 03:42:31;;;;;;;16.33;7.30;;;;;;;4.10;85.53;101518.44;3733129;77;35169;-86
2021/04/13 03:47:36;;;;;;;14.33;7.23;;;;;;;4.15;85.41;101516.97;3708864;77;98380;-86
2021/04/13 03:52:38;;;;;;;12.63;6.70;;;;;;;4.14;85.22;101520.81;3692687;78;26351;-86
2021/04/13 03:57:39;;;;;;;13.68;6.47;;;;;;;4.16;85.31;101517.78;3663238;78;98567;-86
2021/04/13 04:02:39;;;;;;;13.37;6.20;;;;;;;4.10;85.33;101521.17;3690714;78;35978;-86
2021/04/13 04:07:52;;;;;;;12.50;5.80;;;;;;;4.15;85.12;101524.35;3697062;77;98951;-86
2021/04/13 04:13:09;;;;;;;11.93;5.83;;;;;;;4.23;85.11;101520.88;3728196;77;26021;-86
2021/04/13 04:18:26;;;;;;;11.37;5.33;;;;;;;4.21;85.05;101523.91;3718036;76;98430;-86
2021/04/13 04:23:32;;;;;;;12.83;5.87;;;;;;;4.15;84.76;101515.60;3718111;77;35466;-86
2021/04/13 04:28:41;;;;;;;12.50;5.77;;;;;;;4.03;84.92;101519.44;3711106;76;98490;-86
2021/04/13 04:33:42;;;;;;;17.27;6.20;;;;;;;3.89;85.04;101526.84;3641719;79;35055;-86
2021/04/13 04:38:43;;;;;;;13.90;6.50;;;;;;;3.82;85.17;101533.81;3626491;79;98415;-87
2021/04/13 04:43:58;;;;;;;12.50;5.70;;;;;;;3.75;85.23;101544.29;3640957;79;34975;-87
2021/04/13 04:49:06;;;;;;;14.50;6.50;;;;;;;3.64;85.43;101555.96;3724061;77;98951;-87
2021/04/13 04:54:08;;;;;;;12.33;6.10;;;;;;;3.65;85.82;101556.20;3731702;77;34996;-86
2021/04/13 04:59:09;;;;;;;12.70;6.67;;;;;;;3.73;86.03;101563.67;3721430;77;98088;-87
2021/04/13 05:04:09;;;;;;;15.60;6.47;;;;;;;3.89;86.17;101566.88;3730015;77;35133;-87
2021/04/13 05:09:10;;;;;;;13.60;5.13;;;;;;;4.04;86.26;101578.23;3724489;77;98198;-88
2021/04/13 05:14:11;;;;;;;13.53;5.50;;;;;;;4.23;86.10;101576.20;3726682;77;35028;-89
2021/04/13 05:19:12;;;;;;;11.57;5.30;;;;;;;4.36;85.98;101580.00;3735196;77;98446;-89
2021/04/13 05:24:12;;;;;;;11.97;4.70;;;;;;;4.37;85.64;101580.24;3737506;77;34979;-89
2021/04/13 05:29:13;;;;;;;10.40;4.37;;;;;;;4.38;85.21;101579.95;3720017;76;98138;-88
2021/04/13 05:34:14;;;;;;;11.50;4.70;;;;;;;4.31;85.07;101581.48;3728310;77;33336;-88
2021/04/13 05:39:15;;;;;;;11.50;5.80;;;;;;;4.31;84.97;101589.08;3735467;77;98224;-88
2021/04/13 05:44:20;;;;;;;11.97;5.43;;;;;;;4.26;84.75;101594.64;3777230;77;33171;-88
2021/04/13 05:49:21;;;;;;;9.70;4.00;;;;;;;4.14;84.45;101588.92;3755044;76;98350;-87
2021/04/13 05:54:21;;;;;;;9.17;4.10;;;;;;;4.06;84.45;101595.11;3769516;77;32574;-88
2021/04/13 05:59:22;;;;;;;8.27;3.83;;;;;;;4.08;84.78;101595.59;3765733;77;97754;-87
2021/04/13 06:04:23;;;;;;;11.90;4.10;;;;;;;4.22;85.14;101598.30;3755791;77;32657;-87
2021/04/13 06:09:24;;;;;;;11.40;4.13;;;;;;;4.33;84.96;101610.58;3752306;77;98469;-86
2021/04/13 06:14:24;;;;;;;11.53;4.97;;;;;;;4.68;85.50;101601.56;3756604;75;32637;-87
2021/04/13 06:19:25;;;;;;;9.93;5.25;;;;;;;4.68;85.50;101601.56;3748945;76;98791;-87
2021/04/13 06:24:26;;;;;;;12.20;5.10;;;;;;;4.80;84.41;101601.27;3767827;77;28847;-87
2021/04/13 06:29:27;;;;;;;14.70;5.23;;;;;;;4.80;84.50;101614.91;3759332;77;98070;-86
2021/04/13 06:34:28;;;;;;;15.03;5.93;;;;;;;4.85;84.35;101606.60;3769732;77;27161;-86
2021/04/13 06:39:29;;;;;;;15.07;5.60;;;;;;;4.94;84.26;101603.92;3754593;77;98682;-88
2021/04/13 06:45:03;;;;;;;11.77;5.73;;;;;;;5.05;84.34;101611.56;3670630;78;26488;-87
2021/04/13 06:50:21;;;;;;;12.05;5.37;;;;;;;5.12;84.00;101611.12;3663681;78;98154;-87
2021/04/13 06:55:35;;;;;;;12.00;5.77;;;;;;;5.25;83.87;101611.59;3655651;79;27484;-86
2021/04/13 07:00:50;;;;;;;12.17;5.17;;;;;;;5.50;84.27;101623.19;3619123;79;27651;-86
2021/04/13 07:06:13;;;;;;;9.13;4.40;;;;;;;5.70;83.63;101619.91;3650657;79;98652;-86
2021/04/13 07:11:29;;;;;;;12.13;4.67;;;;;;;5.91;82.76;101627.82;3681176;78;27701;-86
2021/04/13 07:16:43;;;;;;;9.38;4.45;;;;;;;6.18;82.73;101629.76;3668024;78;98825;-87
2021/04/13 07:22:17;;;;;;;10.07;3.90;;;;;;;6.36;82.42;101638.22;3668526;78;27455;-88
2021/04/13 07:27:45;;;;;;;12.47;4.60;;;;;;;6.52;81.68;101638.55;3669007;78;98498;-87
2021/04/13 07:32:46;;;;;;;11.97;4.27;;;;;;;6.73;81.62;101641.72;3648274;78;27773;-89
2021/04/13 07:37:51;;;;;;;13.53;4.63;;;;;;;6.80;81.00;101646.14;3666322;78;98507;-88
2021/04/13 07:43:12;;;;;;;10.13;4.30;;;;;;;6.91;80.54;101650.16;3667758;78;27718;-87
2021/04/13 07:48:24;;;;;;;11.35;4.92;;;;;;;6.97;80.24;101654.89;3669089;78;98235;-87
2021/04/13 07:53:47;;;;;;;12.07;4.83;;;;;;;7.01;80.21;101655.86;3669368;78;27473;-87
2021/04/13 07:58:59;;;;;;;9.43;4.35;;;;;;;7.14;79.88;101643.95;3671066;78;98139;-88
2021/04/13 08:04:00;;;;;;;10.57;4.13;;;;;;;7.35;79.88;101645.66;3674371;78;27738;-88
2021/04/13 08:09:31;;;;;;;8.93;4.17;;;;;;;7.58;78.61;101636.66;3659309;78;98491;-86
2021/04/13 08:14:37;;;;;;;10.60;4.30;;;;;;;7.72;78.27;101628.47;3664727;78;27568;-87
2021/04/13 08:19:39;;;;;;;10.43;4.40;;;;;;;8.02;77.96;101630.67;3666773;78;98467;-87
2021/04/13 08:24:53;;;;;;;15.30;5.83;;;;;;;8.28;76.74;101637.63;3669004;78;27524;-88
2021/04/13 08:30:26;;;;;;;14.20;5.70;;;;;;;8.49;76.62;101634.91;3668899;78;98438;-87
2021/04/13 08:35:36;;;;;;;11.40;5.53;;;;;;;8.85;75.74;101635.11;3667276;78;98678;-87
2021/04/13 08:41:01;;;;;;;10.13;4.67;;;;;;;9.23;74.89;101638.47;3615509;78;28843;-88
2021/04/13 08:46:35;;;;;;;9.48;3.67;;;;;;;9.48;73.47;101631.33;3627775;79;98751;-88
2021/04/13 08:51:42;;;;;;;8.57;3.23;;;;;;;9.81;71.50;101638.93;3625866;79;27541;-89
2021/04/13 08:57:03;;;;;;;8.08;3.33;;;;;;;10.27;72.13;101630.27;3615967;79;98520;-89
2021/04/13 09:02:14;;;;;;;4.93;2.47;;;;;;;10.87;70.47;101634.82;3627791;79;27454;-90
2021/04/13 09:07:24;;;;;;;9.05;3.20;;;;;;;11.63;68.06;101628.50;3619585;79;98648;-89
2021/04/13 09:12:30;;;;;;;7.63;3.50;;;;;;;12.21;67.79;101637.25;3628237;79;27462;-90
2021/04/13 09:17:39;;;;;;;7.60;3.37;;;;;;;12.68;65.44;101640.10;3621611;79;98682;-91
2021/04/13 09:22:57;;;;;;;9.10;3.33;;;;;;;13.35;65.45;101631.23;3607782;79;57725;-89
2021/04/13 09:28:09;;;;;;;8.03;3.50;;;;;;;13.98;63.84;101635.72;3578195;80;99540;-92
2021/04/13 09:33:15;;;;;;;6.60;3.00;;;;;;;14.68;63.87;101629.89;3582858;80;27631;-91
2021/04/13 09:38:44;;;;;;;;;;;;;;;15.43;62.99;101623.50;3592063;80;98630;-91
2021/04/13 09:43:54;;;;;;;5.55;2.15;;;;;;;16.16;54.75;101617.79;3590443;80;32700;-92
2021/04/13 09:49:31;;;;;;;5.53;2.33;;;;;;;16.08;56.84;101611.99;3580420;80;98456;-88
2021/04/13 09:54:41;;;;;;;5.33;2.55;;;;;;;16.26;56.27;101619.85;3582329;80;32880;-90
2021/04/13 10:00:37;;;;;;;6.67;2.22;;;;;;;16.47;54.85;101616.64;3582109;80;98555;-92
2021/04/13 10:05:42;;;;;;;6.70;2.53;;;;;;;16.87;53.21;101602.56;3505435;80;100607;-93
2021/04/13 10:11:28;;;;;;;5.80;2.00;;;;;;;17.37;52.57;101611.27;3592754;80;28476;-90
2021/04/13 10:17:08;;;;;;;4.63;1.63;;;;;;;17.35;50.52;101606.70;3599653;80;98757;-90
2021/04/13 10:22:30;;;;;;;5.25;1.87;;;;;;;17.56;50.68;101599.78;3584836;80;31487;-89
2021/04/13 10:28:09;;;;;;;3.25;1.60;;;;;;;18.02;50.15;101595.62;3582686;80;98611;-91
2021/04/13 10:33:54;;;;;;;3.95;1.52;;;;;;;18.07;47.70;101603.58;3582818;80;30816;-91
2021/04/13 10:39:37;;;;;;;2.98;1.40;;;;;;;17.97;46.59;101589.86;3581666;80;98398;-92
2021/04/13 10:45:15;;;;;;;5.05;1.35;;;;;;;17.76;46.43;101595.43;3590617;80;33869;-88
2021/04/13 10:50:31;;;;;;;6.67;1.52;;;;;;;17.57;45.88;101597.80;3620267;79;97971;-90
2021/04/13 10:56:14;;;;;;;4.13;1.77;;;;;;;17.69;47.18;101590.45;3588273;80;98262;-89
2021/04/13 11:01:42;;;;;;;4.55;1.45;;;;;;;17.64;44.60;101591.66;3637840;79;32725;-89
2021/04/13 11:07:20;;;;;;;5.75;1.40;;;;;;;17.41;45.14;101581.48;3629084;79;98685;-91
2021/04/13 11:12:56;;;;;;;3.02;1.37;;;;;;;17.25;45.31;101577.44;3622813;79;33245;-90
2021/04/13 11:18:00;;;;;;;3.20;1.17;;;;;;;16.97;44.99;101579.56;3611440;79;98926;-92
2021/04/13 11:23:29;;;;;;;3.65;1.67;;;;;;;16.63;43.68;101571.27;3648797;79;32760;-90
2021/04/13 11:29:02;;;;;;;5.05;1.25;;;;;;;16.19;43.57;101562.87;3651074;79;98649;-92
2021/04/13 11:34:43;;;;;;;4.53;1.30;;;;;;;16.02;42.84;101558.00;3602968;80;31880;-89
2021/04/13 11:39:55;;;;;;;5.13;1.70;;;;;;;15.78;44.46;101555.23;3601756;80;98823;-92
2021/04/13 11:45:25;;;;;;;5.57;2.07;;;;;;;15.67;43.40;101553.55;3606655;80;29403;-92
2021/04/13 11:50:43;;;;;;;4.77;1.50;;;;;;;15.38;42.98;101552.49;3597944;80;29481;-90
2021/04/13 11:55:49;;;;;;;5.93;1.40;;;;;;;15.23;43.67;101546.59;3588226;80;98308;-93
2021/04/13 12:00:57;;;;;;;7.12;2.40;;;;;;;15.26;42.78;101552.75;3615199;80;27666;-89
2021/04/13 12:06:05;;;;;;;5.33;2.02;;;;;;;14.95;42.42;101553.23;3601605;80;98551;-91
2021/04/13 12:11:12;;;;;;;8.10;2.10;;;;;;;14.73;42.23;101543.08;3611839;80;27212;-93
2021/04/13 12:16:18;;;;;;;5.15;1.65;;;;;;;14.81;40.59;101543.35;3596259;80;98700;-94
2021/04/13 12:21:28;;;;;;;3.40;1.42;;;;;;;14.77;43.19;101534.19;3595964;80;27579;-92
2021/04/13 12:26:43;;;;;;;4.13;1.30;;;;;;;14.71;42.77;101534.32;3595176;80;98808;-92
2021/04/13 12:31:44;;;;;;;5.47;1.40;;;;;;;14.61;43.31;101523.91;3604089;80;28365;-93
2021/04/13 12:36:53;;;;;;;3.03;0.90;;;;;;;14.64;41.40;101522.35;3596616;80;98576;-91
2021/04/13 12:42:00;;;;;;;2.03;0.77;;;;;;;14.51;41.72;101522.40;3595938;80;29050;-92
2021/04/13 12:47:01;;;;;;;4.77;1.40;;;;;;;14.32;41.76;101512.27;3595661;80;98295;-92
2021/04/13 12:52:20;;;;;;;3.20;0.87;;;;;;;14.42;41.30;101501.10;3602112;80;27405;-89
2021/04/13 12:57:25;;;;;;;3.45;1.10;;;;;;;14.34;42.28;101509.91;3593718;80;98863;-91
2021/04/13 13:02:34;;;;;;;4.43;1.00;;;;;;;14.14;42.15;101491.02;3598455;80;27683;-88
2021/04/13 13:07:35;;;;;;;8.48;1.17;;;;;;;13.94;41.94;101488.97;3603573;80;98645;-91
2021/04/13 13:12:37;;;;;;;4.20;1.17;;;;;;;14.07;43.22;101500.62;3605804;80;28928;-91
2021/04/13 13:17:46;;;;;;;6.33;1.00;;;;;;;14.18;43.29;101493.25;3597606;80;98580;-92
2021/04/13 13:22:50;;;;;;;5.03;1.13;;;;;;;14.15;42.25;101486.50;3553035;81;30163;-88
2021/04/13 13:27:51;;;;;;;2.83;1.10;;;;;;;14.05;42.77;101494.06;3549215;80;98533;-90
2021/04/13 13:32:53;;;;;;;5.25;1.75;;;;;;;13.80;42.64;101492.90;3560125;81;29998;-90
2021/04/13 13:37:58;;;;;;;3.30;0.87;;;;;;;13.75;43.25;101487.72;3543086;81;98446;-90
2021/04/13 13:43:10;;;;;;;2.50;1.00;;;;;;;13.62;42.41;101486.91;3582584;80;27409;-92
2021/04/13 13:48:25;;;;;;;2.72;0.88;;;;;;;13.72;42.09;101477.37;3549044;80;98485;-88
2021/04/13 13:53:26;;;;;;;4.53;1.10;;;;;;;13.66;43.33;101478.06;3546950;81;28679;-92
2021/04/13 13:58:35;;;;;;;4.17;1.60;;;;;;;13.71;42.72;101469.44;3548831;81;98668;-90
2021/04/13 14:03:46;;;;;;;5.57;1.20;;;;;;;13.67;42.91;101465.24;3560842;81;27324;-88
2021/04/13 14:08:50;;;;;;;3.47;1.02;;;;;;;13.53;43.57;101452.56;3548040;80;98096;-89
2021/04/13 14:14:02;;;;;;;3.07;1.03;;;;;;;13.48;43.13;101457.06;3558597;81;27624;-86
2021/04/13 14:19:20;;;;;;;4.00;1.20;;;;;;;13.38;42.80;101459.07;3544850;80;98112;-90
2021/04/13 14:24:34;;;;;;;6.00;1.17;;;;;;;13.36;43.24;101453.09;3561531;79;27557;-91
2021/04/13 14:29:39;;;;;;;3.73;1.30;;;;;;;13.32;42.57;101450.06;3554154;81;98440;-87
2021/04/13 14:34:41;;;;;;;10.03;2.07;;;;;;;13.31;43.19;101429.13;3551609;81;27451;-87
2021/04/13 14:39:50;;;;;;;4.22;1.40;;;;;;;13.16;42.84;101439.16;3551328;81;98372;-91
2021/04/13 14:44:54;;;;;;;4.53;1.50;;;;;;;13.12;43.52;101438.86;3549400;81;30086;-89
2021/04/13 14:50:00;;;;;;;5.60;1.40;;;;;;;13.09;43.49;101443.16;3571216;80;98325;-90
2021/04/13 14:55:01;;;;;;;4.92;1.52;;;;;;;13.15;43.58;101432.61;3545162;81;27532;-88
2021/04/13 15:00:11;;;;;;;6.00;1.83;;;;;;;13.03;43.12;101434.97;3546604;81;98161;-88
2021/04/13 15:05:13;;;;;;;5.53;1.53;;;;;;;12.96;43.30;101429.90;3550942;81;27495;-88
2021/04/13 15:10:19;;;;;;;4.70;1.50;;;;;;;12.87;44.22;101434.86;3549523;80;98265;-90
2021/04/13 15:15:21;;;;;;;5.57;1.63;;;;;;;12.79;44.38;101433.13;3547845;81;27727;-89
2021/04/13 15:20:24;;;;;;;6.10;1.93;;;;;;;12.81;44.59;101432.19;3540769;80;101252;-89
2021/04/13 15:25:26;;;;;;;6.83;1.67;;;;;;;12.64;44.54;101424.38;3584304;80;98869;-84
2021/04/13 15:30:35;;;;;;;4.67;1.53;;;;;;;12.40;44.70;101424.13;3608827;80;27472;-89
2021/04/13 15:35:44;;;;;;;4.30;1.87;;;;;;;12.30;45.00;101421.95;3612506;79;98418;-88
2021/04/13 15:40:48;;;;;;;3.10;1.40;;;;;;;12.17;45.17;101419.13;3604927;79;27445;-88
2021/04/13 15:45:56;;;;;;;6.87;2.30;;;;;;;12.07;45.75;101423.84;3611568;80;98699;-88
2021/04/13 15:50:58;;;;;;;4.73;1.70;;;;;;;12.04;45.59;101426.54;3618238;80;27521;-86
2021/04/13 15:56:01;;;;;;;10.40;4.20;;;;;;;11.64;44.45;101415.81;3614156;80;98375;-86
2021/04/13 16:01:01;;;;;;;8.73;3.47;;;;;;;11.42;45.73;101421.97;3601544;80;27495;-89
2021/04/13 16:06:03;;;;;;;7.80;2.70;;;;;;;11.00;45.86;101393.95;3599000;80;98968;-90
2021/04/13 16:11:04;;;;;;;9.83;6.07;;;;;;;11.00;45.86;101393.95;3581966;80;26642;-87
2021/04/13 16:16:07;;;;;;;6.27;2.67;;;;;;;10.90;45.80;101417.92;3617144;79;98976;-86
2021/04/13 16:21:08;;;;;;;7.73;2.97;;;;;;;10.76;45.90;101428.56;3594580;80;28390;-88
2021/04/13 16:26:10;;;;;;;6.53;3.12;;;;;;;10.62;46.04;101420.73;3592641;80;98719;-88
2021/04/13 16:31:32;;;;;;;10.30;4.63;;;;;;;10.62;47.32;101419.92;3597868;80;28399;-90
2021/04/13 16:36:44;;;;;;;6.70;2.05;;;;;;;10.60;47.10;101426.36;3596614;80;98744;-87
2021/04/13 16:41:46;;;;;;;8.43;3.57;;;;;;;10.48;47.32;101414.83;3624222;79;27535;-91
2021/04/13 16:46:48;;;;;;;10.85;5.47;;;;;;;10.33;47.60;101409.30;3621841;79;98590;-91
2021/04/13 16:51:54;;;;;;;8.37;3.23;;;;;;;10.27;46.91;101409.34;3649072;79;27016;-89
2021/04/13 16:56:56;;;;;;;5.63;2.00;;;;;;;10.12;47.59;101414.20;3624548;79;98466;-91
2021/04/13 17:02:20;;;;;;;8.93;4.00;;;;;;;9.97;47.58;101423.97;3620131;79;27617;-90
2021/04/13 17:07:59;;;;;;;8.43;3.13;;;;;;;9.87;47.40;101423.67;3599228;80;98182;-91
2021/04/13 17:13:24;;;;;;;6.97;2.63;;;;;;;9.70;48.35;101427.48;3605237;80;27491;-90
2021/04/13 17:18:26;;;;;;;8.93;2.98;;;;;;;9.61;48.66;101428.20;3607586;79;98273;-88
2021/04/13 17:23:34;;;;;;;6.83;2.67;;;;;;;9.53;49.41;101422.80;3596181;80;27630;-90
2021/04/13 17:28:46;;;;;;;6.37;2.90;;;;;;;9.48;49.71;101416.20;3553465;81;97966;-89
2021/04/13 17:33:48;;;;;;;6.80;2.63;;;;;;;9.39;49.43;101423.75;3600840;80;28225;-89
2021/04/13 17:39:15;;;;;;;9.33;3.70;;;;;;;9.29;50.13;101423.66;3557486;81;97968;-90
2021/04/13 17:44:36;;;;;;;9.77;3.50;;;;;;;9.16;49.99;101428.12;3562504;81;27542;-88
2021/04/13 17:49:41;;;;;;;17.80;3.80;;;;;;;8.92;49.82;101441.81;3554750;80;97885;-90
2021/04/13 17:54:42;;;;;;;10.27;3.50;;;;;;;8.83;52.04;101448.77;3545792;81;28294;-89
2021/04/13 17:59:43;;;;;;;7.17;3.00;;;;;;;8.75;52.90;101459.85;3562156;80;97972;-88
2021/04/13 18:05:06;;;;;;;39.77;12.67;;;;;;;8.66;53.46;101468.73;3566566;81;26295;-88
2021/04/13 18:10:13;;;;;;;38.13;12.47;;;;;;;8.61;54.15;101467.61;3565700;80;98497;-90
2021/04/13 18:15:21;;;;;;;34.55;17.12;;;;;;;8.50;54.56;101478.78;3575698;81;27459;-89
2021/04/13 18:20:27;;;;;;;33.03;15.67;;;;;;;8.34;54.56;101468.98;3559639;80;97949;-91
2021/04/13 18:25:42;;;;;;;19.20;8.33;;;;;;;8.25;54.55;101474.31;3553321;80;105724;-89
2021/04/13 18:30:43;;;;;;;23.07;12.10;;;;;;;8.08;54.97;101456.61;3542632;81;27482;-90
2021/04/13 18:36:10;;;;;;;28.33;15.53;;;;;;;7.97;55.44;101468.53;3534315;81;98727;-91
2021/04/13 18:41:28;;;;;;;19.60;7.50;;;;;;;7.83;55.41;101467.20;3546834;81;28252;-92
2021/04/13 18:46:43;;;;;;;14.58;6.62;;;;;;;7.66;55.01;101470.87;3537746;81;98417;-89
2021/04/13 18:51:49;;;;;;;15.10;5.70;;;;;;;7.54;55.84;101476.82;3545609;81;27740;-90
2021/04/13 18:56:59;;;;;;;15.18;6.72;;;;;;;7.46;56.14;101483.13;3542676;81;98591;-89
2021/04/13 19:02:08;;;;;;;21.07;9.57;;;;;;;7.34;56.48;101476.19;3526093;82;27529;-88
2021/04/13 19:07:17;;;;;;;22.87;8.40;;;;;;;7.25;56.64;101472.72;3512242;82;98434;-89
2021/04/13 19:12:24;;;;;;;21.03;9.50;;;;;;;7.21;57.18;101476.66;3548103;81;26889;-88
2021/04/13 19:17:37;;;;;;;25.20;11.22;;;;;;;7.14;57.18;101471.48;3543272;81;98968;-87
2021/04/13 19:23:11;;;;;;;24.50;9.60;;;;;;;7.08;57.86;101465.92;3540283;80;27539;-87
2021/04/13 19:28:33;;;;;;;26.27;9.73;;;;;;;7.04;58.01;101470.47;3551071;80;98396;-87
2021/04/13 19:33:39;;;;;;;23.07;8.43;;;;;;;6.95;58.02;101467.77;3549044;81;27461;-87
2021/04/13 19:38:57;;;;;;;18.20;7.33;;;;;;;6.89;58.53;101469.62;3546099;81;98466;-88
2021/04/13 19:44:00;;;;;;;20.60;8.40;;;;;;;6.78;58.50;101462.34;3565261;81;27609;-88
2021/04/13 19:49:07;;;;;;;18.17;8.27;;;;;;;6.71;58.79;101462.61;3552133;81;98240;-87
2021/04/13 19:54:23;;;;;;;24.27;10.73;;;;;;;6.69;59.20;101471.13;3557354;81;27549;-87
2021/04/13 19:59:32;;;;;;;21.97;9.87;;;;;;;6.65;59.22;101469.39;3542610;80;98277;-86
2021/04/13 20:04:36;;;;;;;24.93;10.77;;;;;;;6.56;59.48;101460.39;3533057;81;27484;-87
2021/04/13 20:09:37;;;;;;;22.70;9.40;;;;;;;6.49;59.96;101458.72;3539463;81;98750;-88
2021/04/13 20:14:53;;;;;;;20.95;9.55;;;;;;;6.45;60.03;101456.39;3551179;81;26857;-86
2021/04/13 20:19:58;;;;;;;26.67;11.47;;;;;;;6.40;60.40;101461.47;3540445;81;97932;-86
2021/04/13 20:25:04;;;;;;;23.90;11.53;;;;;;;6.33;60.22;101454.88;3559501;81;27458;-87
2021/04/13 20:30:16;;;;;;;27.43;12.00;;;;;;;6.24;60.49;101459.55;3525581;80;97866;-86
2021/04/13 20:38:19;;;;;;;24.67;11.40;;;;;;;6.18;60.84;101469.03;3554985;81;29756;-87
2021/04/13 20:40:33;;;;;;;36.03;14.73;;;;;;;6.11;61.18;101470.09;3523264;81;26219;-87
2021/04/13 20:45:33;;;;;;;26.67;12.27;;;;;;;6.02;61.40;101468.73;3540767;81;98755;-87
2021/04/13 20:50:44;;;;;;;31.90;14.47;;;;;;;5.96;61.70;101467.83;3545382;81;26479;-87
2021/04/13 20:55:50;;;;;;;32.50;12.10;;;;;;;5.90;62.04;101463.07;3545427;81;98474;-87
2021/04/13 21:01:05;;;;;;;24.60;10.15;;;;;;;5.83;62.23;101454.56;3541841;81;28004;-88
2021/04/13 21:06:36;;;;;;;23.13;9.53;;;;;;;5.74;62.24;101460.53;3538430;81;98377;-87
2021/04/13 21:11:37;;;;;;;14.00;6.97;;;;;;;5.65;62.42;101458.92;3539536;81;26206;-87
2021/04/13 21:16:39;;;;;;;19.02;6.95;;;;;;;5.54;62.64;101470.72;3531096;82;98551;-87
2021/04/13 21:21:48;;;;;;;17.67;6.10;;;;;;;5.48;63.08;101460.26;3550924;81;26040;-87
2021/04/13 21:27:00;;;;;;;16.97;7.07;;;;;;;5.38;63.40;101457.27;3523786;81;98616;-87
2021/04/13 21:32:26;;;;;;;13.77;4.83;;;;;;;5.32;63.52;101450.91;3536690;81;27686;-87
2021/04/13 21:37:44;;;;;;;15.23;5.20;;;;;;;5.26;63.76;101453.53;3545158;81;98722;-87
2021/04/13 21:42:53;;;;;;;12.93;5.20;;;;;;;5.22;64.06;101449.83;3545355;81;28200;-87
2021/04/13 21:48:05;;;;;;;16.27;5.37;;;;;;;5.15;64.15;101450.85;3539287;81;98715;-87
2021/04/13 21:53:23;;;;;;;13.67;4.77;;;;;;;5.12;64.46;101455.59;3541001;81;28274;-88
2021/04/13 21:58:34;;;;;;;11.28;4.28;;;;;;;5.10;64.88;101458.63;3534318;81;98582;-87
2021/04/13 22:03:45;;;;;;;16.20;4.50;;;;;;;5.13;65.04;101467.53;3537253;81;28870;-88
2021/04/13 22:08:51;;;;;;;11.93;4.17;;;;;;;5.20;64.99;101468.45;3527879;81;98539;-88
2021/04/13 22:14:05;;;;;;;13.57;5.77;;;;;;;5.31;65.26;101464.31;3537373;81;28163;-88
2021/04/13 22:19:11;;;;;;;13.22;3.72;;;;;;;5.44;65.11;101470.20;3537521;81;98984;-88
2021/04/13 22:24:19;;;;;;;12.17;3.73;;;;;;;5.48;65.10;101472.00;3552526;81;27993;-88
2021/04/13 22:29:31;;;;;;;10.40;3.83;;;;;;;5.45;64.75;101473.20;3565702;81;98349;-87
2021/04/13 22:34:52;;;;;;;8.80;3.53;;;;;;;5.40;64.79;101472.77;3580210;81;27650;-88
2021/04/13 22:39:54;;;;;;;9.73;3.05;;;;;;;5.27;64.95;101472.33;3563249;81;97847;-88
2021/04/13 22:44:55;;;;;;;9.67;3.20;;;;;;;5.18;64.97;101466.61;3568649;81;26356;-87
2021/04/13 22:49:55;;;;;;;11.23;4.33;;;;;;;5.09;65.18;101469.86;3519083;82;97946;-88
2021/04/13 22:55:23;;;;;;;10.57;3.57;;;;;;;5.02;65.31;101462.69;3565102;81;25954;-89
2021/04/13 23:00:29;;;;;;;9.17;4.00;;;;;;;4.93;65.69;101461.84;3556950;81;98192;-88
2021/04/13 23:05:30;;;;;;;11.25;3.83;;;;;;;4.86;65.92;101455.46;3521573;82;27658;-88
2021/04/13 23:10:31;;;;;;;11.87;3.97;;;;;;;4.78;66.16;101448.61;3528354;81;98318;-87
2021/04/13 23:15:32;;;;;;;12.37;5.17;;;;;;;4.74;66.39;101453.89;3528249;82;26636;-89
2021/04/13 23:20:33;;;;;;;13.30;4.60;;;;;;;4.68;66.72;101448.87;3600280;80;98444;-87
2021/04/13 23:25:33;;;;;;;17.10;4.43;;;;;;;4.63;66.82;101445.73;3612714;80;25928;-87
2021/04/13 23:30:34;;;;;;;16.40;5.00;;;;;;;4.60;67.05;101441.46;3598402;80;98815;-88
2021/04/13 23:35:35;;;;;;;13.53;5.43;;;;;;;4.58;67.51;101438.26;3608127;80;26541;-88
2021/04/13 23:40:36;;;;;;;19.67;6.33;;;;;;;4.61;67.61;101445.80;3602594;80;98771;-87
2021/04/13 23:45:37;;;;;;;16.87;5.50;;;;;;;4.67;67.76;101426.27;3608726;79;33600;-87
2021/04/13 23:50:38;;;;;;;15.93;6.80;;;;;;;4.77;67.99;101429.27;3541606;80;98520;-87
2021/04/13 23:55:39;;;;;;;20.60;7.23;;;;;;;4.85;67.74;101432.62;3549078;81;33079;-87
